This is the latest recevied weather packets stored in our database for station/object KC8RFE-1. If no packets are shown the sender has not sent any weather packets the latest 1 day(s).
| Time | Temp. | Humidity | Pressure | Rain* | Wind** | Luminosity | Snow |
|---|---|---|---|---|---|---|---|
| 1778008409 | 11.11° C | 6% | - | 0 mm | 0.89 m/s, 276° | - | - |
| 1778008109 | 11.11° C | 6% | - | 0 mm | 0.89 m/s, 297° | - | - |
| 1778007809 | 11.11° C | 6% | - | 0 mm | 0.89 m/s, 268° | - | - |
| 1778007509 | 11.11° C | 6% | - | 0 mm | 1.34 m/s, 256° | - | - |
| 1778007209 | 11.11° C | 6% | - | 0 mm | 0.89 m/s, 280° | - | - |
| 1778006909 | 11.11° C | 6% | - | 0 mm | 1.34 m/s, 259° | - | - |
| 1778006609 | 11.11° C | 6% | - | 0 mm | 1.34 m/s, 255° | - | - |
| 1778006309 | 11.11° C | 6% | - | 0 mm | 0.89 m/s, 284° | - | - |
| 1778006009 | 11.11° C | 6% | - | 0 mm | 1.34 m/s, 299° | - | - |
| 1778005709 | 11.11° C | 6% | - | 0 mm | 0.89 m/s, 285° | - | - |
| 1778005409 | 11.11° C | 6% | - | 0 mm | 1.34 m/s, 324° | - | - |
| 1778005109 | 11.67° C | 6% | - | 0 mm | 1.34 m/s, 297° | - | - |
| 1778004809 | 11.67° C | 6% | - | 0 mm | 1.34 m/s, 344° | - | - |
| 1778004509 | 11.67° C | 6% | - | 0 mm | 1.79 m/s, 13° | - | - |
| 1778004209 | 12.22° C | 6% | - | 0 mm | 2.24 m/s, 23° | - | - |
| 1778003909 | 12.22° C | 6% | - | 0 mm | 0.89 m/s, 328° | - | - |
| 1778003609 | 12.22° C | 6% | - | 0 mm | 0.89 m/s, 274° | - | - |
| 1778003309 | 12.22° C | 6% | - | 0 mm | 1.79 m/s, 317° | - | - |
| 1778003009 | 12.22° C | 6% | - | 0 mm | 1.34 m/s, 273° | - | - |
| 1778002709 | 12.22° C | 6% | - | 0 mm | 1.34 m/s, 267° | - | - |
| 1778002409 | 12.22° C | 6% | - | 0 mm | 1.34 m/s, 282° | - | - |
| 1778002110 | 12.22° C | 6% | - | 0 mm | 1.34 m/s, 291° | - | - |
| 1778001810 | 12.22° C | 6% | - | 0 mm | 2.68 m/s, 18° | - | - |
| 1778001510 | 12.22° C | 6% | - | 0 mm | 2.68 m/s, 36° | - | - |
| 1778001210 | 12.22° C | 6% | - | 0 mm | 2.24 m/s, 33° | - | - |
* Rain latest hour (hover to see other rain measurements)
** Current wind speed in m/s (hover to see current wind gust speed)